createdAt,value
2019-06-10T00:00:41.754Z,100.00
2019-06-10T00:03:11.530Z,100.00
2019-06-10T00:05:41.450Z,100.00
2019-06-10T00:08:11.800Z,100.00
2019-06-10T00:10:42.150Z,100.00
2019-06-10T00:13:11.866Z,100.00
2019-06-10T00:15:41.262Z,100.00
2019-06-10T00:18:34.095Z,100.00
2019-06-10T00:20:41.291Z,100.00
2019-06-10T00:23:12.323Z,100.00
2019-06-10T00:25:41.307Z,100.00
2019-06-10T00:28:12.054Z,100.00
2019-06-10T00:30:41.143Z,100.00
2019-06-10T00:33:12.341Z,100.00
2019-06-10T00:35:41.302Z,100.00
2019-06-10T00:38:13.957Z,100.00
2019-06-10T00:40:41.477Z,100.00
2019-06-10T00:43:13.256Z,100.00
2019-06-10T00:45:42.087Z,100.00
2019-06-10T00:48:24.762Z,100.00
2019-06-10T00:50:41.622Z,100.00
2019-06-10T00:53:14.348Z,100.00
2019-06-10T00:55:42.022Z,100.00
2019-06-10T00:58:13.886Z,100.00
2019-06-10T01:00:41.308Z,100.00
2019-06-10T01:03:14.628Z,100.00
2019-06-10T01:05:42.097Z,100.00
2019-06-10T01:08:13.919Z,100.00
2019-06-10T01:10:43.797Z,100.00
2019-06-10T01:13:13.544Z,100.00
2019-06-10T01:15:42.057Z,100.00
2019-06-10T01:20:42.540Z,100.00
2019-06-10T01:23:13.906Z,100.00
2019-06-10T01:25:42.827Z,100.00
2019-06-10T01:28:13.323Z,100.00
2019-06-10T01:30:41.582Z,100.00
2019-06-10T01:33:11.434Z,100.00
2019-06-10T01:35:41.513Z,100.00
2019-06-10T01:38:12.900Z,100.00
2019-06-10T01:40:42.187Z,100.00
2019-06-10T01:43:13.371Z,100.00
2019-06-10T01:45:41.758Z,100.00
2019-06-10T01:48:12.117Z,100.00
2019-06-10T01:50:40.685Z,100.00
2019-06-10T01:53:10.108Z,100.00
2019-06-10T01:55:41.463Z,100.00
2019-06-10T01:58:10.625Z,100.00
2019-06-10T02:01:01.395Z,100.00
2019-06-10T02:03:31.356Z,100.00
2019-06-10T02:06:01.979Z,100.00
2019-06-10T02:08:31.635Z,100.00
2019-06-10T02:11:01.124Z,100.00
2019-06-10T02:13:32.417Z,100.00
2019-06-10T02:16:03.544Z,100.00
2019-06-10T02:18:32.358Z,100.00
2019-06-10T02:21:01.399Z,100.00
2019-06-10T02:23:31.421Z,100.00
2019-06-10T02:26:01.606Z,100.00
2019-06-10T02:28:31.745Z,100.00
2019-06-10T02:31:03.147Z,100.00
2019-06-10T02:33:36.045Z,100.00
2019-06-10T02:36:04.117Z,100.00
2019-06-10T02:38:37.754Z,100.00
2019-06-10T02:41:04.432Z,100.00
2019-06-10T02:43:33.298Z,100.00
2019-06-10T02:46:04.443Z,100.00
2019-06-10T02:48:34.847Z,100.00
2019-06-10T02:51:04.520Z,100.00
2019-06-10T02:53:36.046Z,100.00
2019-06-10T02:56:04.883Z,100.00
2019-06-10T02:58:38.325Z,100.00
2019-06-10T03:01:04.500Z,100.00
2019-06-10T03:03:42.877Z,100.00
2019-06-10T03:06:06.621Z,100.00
2019-06-10T03:08:36.349Z,100.00
2019-06-10T03:11:04.091Z,100.00
2019-06-10T03:13:33.122Z,100.00
2019-06-10T03:16:03.326Z,100.00
2019-06-10T03:18:32.860Z,100.00
2019-06-10T03:21:02.637Z,100.00
2019-06-10T03:23:32.024Z,100.00
2019-06-10T03:26:04.233Z,100.00
2019-06-10T03:28:32.159Z,100.00
2019-06-10T03:31:05.005Z,100.00
2019-06-10T03:33:40.310Z,100.00
2019-06-10T03:36:02.969Z,100.00
2019-06-10T03:38:32.505Z,100.00
2019-06-10T03:41:02.988Z,100.00
2019-06-10T03:43:32.850Z,100.00
2019-06-10T03:46:02.966Z,100.00
2019-06-10T03:48:32.854Z,100.00
2019-06-10T03:51:03.036Z,100.00
2019-06-10T03:53:33.696Z,100.00
2019-06-10T03:56:02.328Z,100.00
2019-06-10T03:58:32.837Z,100.00
2019-06-10T04:01:03.036Z,100.00
2019-06-10T04:03:33.944Z,100.00
2019-06-10T04:06:07.705Z,100.00
2019-06-10T04:08:35.970Z,100.00
2019-06-10T04:11:04.256Z,100.00
2019-06-10T04:13:33.780Z,100.00
2019-06-10T04:16:02.867Z,100.00
2019-06-10T04:18:32.848Z,100.00
2019-06-10T04:21:02.423Z,100.00
2019-06-10T04:23:33.255Z,100.00
2019-06-10T04:26:02.400Z,100.00
2019-06-10T04:28:33.536Z,100.00
2019-06-10T04:31:02.817Z,100.00
2019-06-10T04:33:32.935Z,100.00
2019-06-10T04:36:02.817Z,100.00
2019-06-10T04:38:32.703Z,100.00
2019-06-10T04:41:03.354Z,100.00
2019-06-10T04:43:32.574Z,100.00
2019-06-10T04:46:02.366Z,100.00
2019-06-10T04:48:32.713Z,100.00
2019-06-10T04:51:03.726Z,100.00
2019-06-10T04:53:33.011Z,100.00
2019-06-10T04:56:02.981Z,100.00
2019-06-10T04:58:33.378Z,100.00
2019-06-10T05:01:03.169Z,100.00
2019-06-10T05:03:32.862Z,100.00
2019-06-10T05:06:03.333Z,100.00
2019-06-10T05:08:33.832Z,100.00
2019-06-10T05:11:03.728Z,100.00
2019-06-10T05:13:33.519Z,100.00
2019-06-10T05:16:03.556Z,100.00
2019-06-10T05:18:33.280Z,100.00
2019-06-10T05:21:02.907Z,100.00
2019-06-10T05:23:32.895Z,100.00
2019-06-10T05:26:02.733Z,100.00
2019-06-10T05:28:33.925Z,100.00
2019-06-10T05:31:02.773Z,100.00
2019-06-10T05:33:33.524Z,100.00
2019-06-10T05:36:02.566Z,100.00
2019-06-10T05:38:35.312Z,100.00
2019-06-10T05:41:03.870Z,100.00
2019-06-10T05:43:34.344Z,100.00
2019-06-10T05:46:03.067Z,100.00
2019-06-10T05:48:33.703Z,100.00
2019-06-10T05:51:05.776Z,100.00
2019-06-10T05:53:35.017Z,100.00
2019-06-10T05:56:02.994Z,100.00
2019-06-10T05:58:34.034Z,100.00
2019-06-10T06:01:02.667Z,100.00
2019-06-10T06:03:36.291Z,100.00
2019-06-10T06:06:03.135Z,100.00
2019-06-10T06:08:33.318Z,100.00
2019-06-10T06:11:03.180Z,100.00
2019-06-10T06:13:34.171Z,100.00
2019-06-10T06:16:03.254Z,100.00
2019-06-10T06:18:34.694Z,100.00
2019-06-10T06:21:19.990Z,100.00
2019-06-10T06:23:34.830Z,100.00
2019-06-10T06:26:03.886Z,100.00
2019-06-10T06:28:34.010Z,100.00
2019-06-10T06:31:03.310Z,100.00
2019-06-10T06:33:34.526Z,100.00
2019-06-10T06:36:03.426Z,100.00
2019-06-10T06:38:36.817Z,100.00
2019-06-10T06:41:04.366Z,100.00
2019-06-10T06:43:37.188Z,100.00
2019-06-10T06:46:02.879Z,100.00
2019-06-10T06:48:35.646Z,100.00
2019-06-10T06:51:05.507Z,100.00
2019-06-10T06:53:39.523Z,100.00
2019-06-10T06:56:03.511Z,100.00
2019-06-10T06:58:34.748Z,100.00
2019-06-10T07:01:10.145Z,100.00
2019-06-10T07:03:34.585Z,100.00
2019-06-10T07:06:02.889Z,100.00
2019-06-10T07:08:35.786Z,100.00
2019-06-10T07:11:04.044Z,100.00
2019-06-10T07:13:35.889Z,100.00
2019-06-10T07:16:04.016Z,100.00
2019-06-10T07:18:34.615Z,100.00
2019-06-10T07:21:02.738Z,100.00
2019-06-10T07:23:35.470Z,100.00
2019-06-10T07:26:02.330Z,100.00
2019-06-10T07:28:33.939Z,100.00
2019-06-10T07:31:03.341Z,100.00
2019-06-10T07:33:34.586Z,100.00
2019-06-10T07:36:03.299Z,100.00
2019-06-10T07:38:33.884Z,100.00
2019-06-10T07:41:02.726Z,100.00
2019-06-10T07:43:34.035Z,100.00
2019-06-10T07:46:03.311Z,100.00
2019-06-10T07:48:33.503Z,100.00
2019-06-10T07:51:02.956Z,100.00
2019-06-10T07:53:33.140Z,100.00
2019-06-10T07:56:03.357Z,100.00
2019-06-10T07:58:33.261Z,100.00
2019-06-10T08:01:02.591Z,100.00
2019-06-10T08:03:33.427Z,100.00
2019-06-10T08:06:03.300Z,100.00
2019-06-10T08:08:33.052Z,100.00
2019-06-10T08:11:03.336Z,100.00
2019-06-10T08:13:33.132Z,100.00
2019-06-10T08:16:02.835Z,100.00
2019-06-10T08:18:39.307Z,100.00
2019-06-10T08:21:04.515Z,100.00
2019-06-10T08:23:33.073Z,100.00
2019-06-10T08:26:03.500Z,100.00
2019-06-10T08:28:33.215Z,100.00
2019-06-10T08:31:03.627Z,100.00
2019-06-10T08:33:33.144Z,100.00
2019-06-10T08:36:04.051Z,100.00
2019-06-10T08:38:33.173Z,100.00
2019-06-10T08:41:03.259Z,100.00
2019-06-10T08:43:33.145Z,100.00
2019-06-10T08:46:02.632Z,100.00
2019-06-10T08:48:32.971Z,100.00
2019-06-10T08:51:03.284Z,100.00
2019-06-10T08:53:33.053Z,100.00
2019-06-10T08:56:02.842Z,100.00
2019-06-10T08:58:33.106Z,100.00
2019-06-10T09:01:02.334Z,100.00
2019-06-10T09:03:32.413Z,100.00
2019-06-10T09:06:02.767Z,100.00
2019-06-10T09:08:32.565Z,100.00
2019-06-10T09:11:02.314Z,100.00
2019-06-10T09:13:33.408Z,100.00
2019-06-10T09:16:12.795Z,100.00
2019-06-10T09:18:33.652Z,100.00
2019-06-10T09:21:02.424Z,100.00
2019-06-10T09:23:33.055Z,100.00
2019-06-10T09:26:03.257Z,100.00
2019-06-10T09:28:32.857Z,100.00
2019-06-10T09:31:04.211Z,100.00
2019-06-10T09:33:33.055Z,100.00
2019-06-10T09:36:03.370Z,100.00
2019-06-10T09:38:33.541Z,100.00
2019-06-10T09:41:05.693Z,100.00
2019-06-10T09:43:33.331Z,100.00
2019-06-10T09:46:03.470Z,100.00
2019-06-10T09:48:33.628Z,100.00
2019-06-10T09:51:02.442Z,100.00
2019-06-10T09:53:41.367Z,100.00
2019-06-10T09:56:04.216Z,100.00
2019-06-10T09:58:33.177Z,100.00
2019-06-10T10:01:03.234Z,100.00
2019-06-10T10:03:32.922Z,100.00
2019-06-10T10:06:13.752Z,100.00
2019-06-10T10:08:33.486Z,100.00
2019-06-10T10:11:01.824Z,100.00
2019-06-10T10:13:34.974Z,100.00
2019-06-10T10:16:02.480Z,100.00
2019-06-10T10:18:32.859Z,100.00
2019-06-10T10:21:03.743Z,100.00
2019-06-10T10:23:48.389Z,100.00
2019-06-10T10:26:03.171Z,100.00
2019-06-10T10:28:33.198Z,100.00
2019-06-10T10:31:03.560Z,98.82
2019-06-10T10:33:33.330Z,100.00
2019-06-10T10:36:02.780Z,100.00
2019-06-10T10:38:34.534Z,99.83
2019-06-10T10:41:04.531Z,99.81
2019-06-10T10:43:34.233Z,98.67
2019-06-10T10:46:05.461Z,94.48
2019-06-10T10:48:34.190Z,91.33
2019-06-10T10:51:03.493Z,90.92
2019-06-10T10:53:33.290Z,92.22
2019-06-10T10:56:03.505Z,92.88
2019-06-10T10:58:32.517Z,90.27
2019-06-10T11:01:04.165Z,90.27
2019-06-10T11:03:33.554Z,89.29
2019-06-10T11:06:02.238Z,85.88
2019-06-10T11:08:33.316Z,88.68
2019-06-10T11:11:04.552Z,88.45
2019-06-10T11:13:35.502Z,87.41
2019-06-10T11:16:05.464Z,89.94
2019-06-10T11:18:34.121Z,89.66
2019-06-10T11:21:05.209Z,89.33
2019-06-10T11:23:34.539Z,91.23
2019-06-10T11:26:03.251Z,92.15
2019-06-10T11:28:32.087Z,90.51
2019-06-10T11:31:03.796Z,92.33
2019-06-10T11:33:32.824Z,91.54
2019-06-10T11:36:13.243Z,93.03
2019-06-10T11:38:41.071Z,94.32
2019-06-10T11:41:09.370Z,94.75
2019-06-10T11:43:37.648Z,95.72
2019-06-10T11:46:07.680Z,99.33
2019-06-10T11:48:36.039Z,93.49
2019-06-10T11:51:06.409Z,90.08
2019-06-10T11:53:34.830Z,89.71
2019-06-10T11:56:03.225Z,85.99
2019-06-10T11:58:33.325Z,83.33
2019-06-10T12:01:03.858Z,85.75
2019-06-10T12:03:32.879Z,81.49
2019-06-10T12:06:05.076Z,79.90
2019-06-10T12:08:32.865Z,75.64
2019-06-10T12:11:02.469Z,73.64
2019-06-10T12:13:33.868Z,74.04
2019-06-10T12:18:33.072Z,71.08
2019-06-10T12:21:03.802Z,73.79
2019-06-10T12:23:33.591Z,71.31
2019-06-10T12:26:04.514Z,74.48
2019-06-10T12:28:32.683Z,71.35
2019-06-10T12:31:05.796Z,75.34
2019-06-10T12:33:33.678Z,73.13
2019-06-10T12:36:06.646Z,72.76
2019-06-10T12:38:33.633Z,71.82
2019-06-10T12:41:07.896Z,67.98
2019-06-10T12:43:32.571Z,73.97
2019-06-10T12:46:02.054Z,74.04
2019-06-10T12:48:34.167Z,74.58
2019-06-10T12:51:07.057Z,74.07
2019-06-10T12:53:32.580Z,73.20
2019-06-10T12:56:08.088Z,72.49
2019-06-10T12:58:33.455Z,70.85
2019-06-10T13:01:05.430Z,71.17
2019-06-10T13:03:32.948Z,73.48
2019-06-10T13:06:07.247Z,71.70
2019-06-10T13:08:35.260Z,75.95
2019-06-10T13:11:04.148Z,74.08
2019-06-10T13:13:32.938Z,76.66
2019-06-10T13:16:05.957Z,74.92
2019-06-10T13:18:31.455Z,75.49
2019-06-10T13:21:07.293Z,74.08
2019-06-10T13:23:36.277Z,73.86
2019-06-10T13:26:12.130Z,72.78
2019-06-10T13:28:34.947Z,77.33
2019-06-10T13:31:08.063Z,80.12
2019-06-10T13:33:35.854Z,79.68
2019-06-10T13:36:05.480Z,80.21
2019-06-10T13:38:34.273Z,82.47
2019-06-10T13:41:04.099Z,81.66
2019-06-10T13:43:34.054Z,86.23
2019-06-10T13:46:08.596Z,82.90
2019-06-10T13:48:35.817Z,85.05
2019-06-10T13:51:08.587Z,86.95
2019-06-10T13:53:34.232Z,86.46
2019-06-10T13:56:27.116Z,89.74
2019-06-10T13:58:32.543Z,91.81
2019-06-10T14:01:04.560Z,89.51
2019-06-10T14:03:32.613Z,91.86
2019-06-10T14:06:12.059Z,90.45
2019-06-10T14:08:32.538Z,90.50
2019-06-10T14:11:13.433Z,89.83
2019-06-10T14:13:44.277Z,93.64
2019-06-10T14:16:14.193Z,97.02
2019-06-10T14:18:43.595Z,98.39
2019-06-10T14:21:18.730Z,96.53
2019-06-10T14:23:47.096Z,96.25
2019-06-10T14:26:17.095Z,98.05
2019-06-10T14:28:45.568Z,96.38
2019-06-10T14:31:33.681Z,96.62
2019-06-10T14:33:43.921Z,95.02
2019-06-10T14:36:15.108Z,98.47
2019-06-10T14:38:42.263Z,100.00
2019-06-10T14:41:10.605Z,97.86
2019-06-10T14:43:38.894Z,95.13
2019-06-10T14:46:07.407Z,96.41
2019-06-10T14:48:36.038Z,97.46
2019-06-10T14:51:05.394Z,100.00
2019-06-10T14:53:34.017Z,100.00
2019-06-10T14:56:03.614Z,100.00
2019-06-10T14:58:32.457Z,100.00
2019-06-10T15:01:04.309Z,100.00
2019-06-10T15:03:32.794Z,100.00
2019-06-10T15:06:03.188Z,100.00
2019-06-10T15:08:32.258Z,100.00
2019-06-10T15:11:00.741Z,100.00
2019-06-10T15:13:29.043Z,100.00
2019-06-10T15:15:57.321Z,100.00
2019-06-10T15:18:25.581Z,100.00
2019-06-10T15:20:53.911Z,100.00
2019-06-10T15:23:25.181Z,100.00
2019-06-10T15:25:56.887Z,100.00
2019-06-10T15:28:23.823Z,100.00
2019-06-10T15:30:53.779Z,100.00
2019-06-10T15:33:23.858Z,100.00
2019-06-10T15:35:53.327Z,100.00
2019-06-10T15:38:23.197Z,100.00
2019-06-10T15:40:53.132Z,100.00
2019-06-10T15:43:23.368Z,100.00
2019-06-10T15:45:52.848Z,100.00
2019-06-10T15:48:24.916Z,100.00
2019-06-10T15:50:51.630Z,100.00
2019-06-10T15:53:20.897Z,100.00
2019-06-10T15:56:10.156Z,100.00
2019-06-10T15:58:21.780Z,100.00
2019-06-10T16:00:53.117Z,100.00
2019-06-10T16:03:21.304Z,100.00
2019-06-10T16:05:52.879Z,100.00
2019-06-10T16:08:20.420Z,100.00
2019-06-10T16:10:56.487Z,100.00
2019-06-10T16:13:25.887Z,100.00
2019-06-10T16:15:55.496Z,100.00
2019-06-10T16:18:27.323Z,100.00
2019-06-10T16:20:55.955Z,100.00
2019-06-10T16:23:26.556Z,100.00
2019-06-10T16:25:54.313Z,100.00
2019-06-10T16:28:23.445Z,100.00
2019-06-10T16:30:54.552Z,100.00
2019-06-10T16:33:26.068Z,100.00
2019-06-10T16:35:53.764Z,100.00
2019-06-10T16:38:24.200Z,100.00
2019-06-10T16:40:53.671Z,100.00
2019-06-10T16:43:24.441Z,100.00
2019-06-10T16:45:52.623Z,100.00
2019-06-10T16:48:21.723Z,100.00
2019-06-10T16:50:53.868Z,100.00
2019-06-10T16:53:26.741Z,100.00
2019-06-10T16:55:52.945Z,100.00
2019-06-10T16:58:25.199Z,100.00
2019-06-10T17:00:51.609Z,100.00
2019-06-10T17:03:21.114Z,100.00
2019-06-10T17:05:50.129Z,100.00
2019-06-10T17:08:19.844Z,100.00
2019-06-10T17:10:49.546Z,100.00
2019-06-10T17:13:19.503Z,100.00
2019-06-10T17:15:47.771Z,100.00
2019-06-10T17:18:16.124Z,100.00
2019-06-10T17:20:44.674Z,100.00
2019-06-10T17:23:27.004Z,100.00
2019-06-10T17:25:56.693Z,100.00
2019-06-10T17:28:30.775Z,100.00
2019-06-10T17:30:57.909Z,100.00
2019-06-10T17:33:28.349Z,100.00
2019-06-10T17:35:56.280Z,100.00
2019-06-10T17:38:26.767Z,100.00
2019-06-10T17:40:55.325Z,100.00
2019-06-10T17:43:23.608Z,100.00
2019-06-10T17:45:52.806Z,100.00
2019-06-10T17:48:23.739Z,100.00
2019-06-10T17:50:52.457Z,100.00
2019-06-10T17:53:22.294Z,100.00
2019-06-10T17:55:51.344Z,100.00
2019-06-10T17:58:33.558Z,100.00
2019-06-10T18:00:53.026Z,100.00
2019-06-10T18:03:24.953Z,100.00
2019-06-10T18:05:53.462Z,100.00
2019-06-10T18:08:22.872Z,100.00
2019-06-10T18:10:53.582Z,100.00
2019-06-10T18:13:24.144Z,100.00
2019-06-10T18:15:53.352Z,100.00
2019-06-10T18:18:22.033Z,100.00
2019-06-10T18:20:53.635Z,100.00
2019-06-10T18:23:22.894Z,100.00
2019-06-10T18:25:52.762Z,100.00
2019-06-10T18:28:22.635Z,100.00
2019-06-10T18:30:53.118Z,100.00
2019-06-10T18:33:23.715Z,100.00
2019-06-10T18:35:55.067Z,100.00
2019-06-10T18:38:23.364Z,100.00
2019-06-10T18:40:53.539Z,100.00
2019-06-10T18:43:23.073Z,100.00
2019-06-10T18:45:53.600Z,100.00
2019-06-10T18:48:23.124Z,100.00
2019-06-10T18:50:53.391Z,100.00
2019-06-10T18:53:23.715Z,100.00
2019-06-10T18:55:54.884Z,100.00
2019-06-10T18:58:22.493Z,100.00
2019-06-10T19:01:00.678Z,100.00
2019-06-10T19:03:23.277Z,100.00
2019-06-10T19:05:53.232Z,100.00
2019-06-10T19:08:22.297Z,100.00
2019-06-10T19:10:53.791Z,100.00
2019-06-10T19:13:22.748Z,100.00
2019-06-10T19:15:53.125Z,100.00
2019-06-10T19:18:31.848Z,100.00
2019-06-10T19:21:03.549Z,100.00
2019-06-10T19:23:34.515Z,100.00
2019-06-10T19:26:02.974Z,100.00
2019-06-10T19:28:39.102Z,100.00
2019-06-10T19:31:09.019Z,100.00
2019-06-10T19:33:41.326Z,100.00
2019-06-10T19:36:09.538Z,100.00
2019-06-10T19:38:39.977Z,100.00
2019-06-10T19:41:10.888Z,100.00
2019-06-10T19:43:39.815Z,100.00
2019-06-10T19:46:09.233Z,100.00
2019-06-10T19:48:41.223Z,100.00
2019-06-10T19:51:08.596Z,100.00
2019-06-10T19:53:37.256Z,100.00
2019-06-10T19:56:05.656Z,100.00
2019-06-10T19:58:36.146Z,100.00
2019-06-10T20:01:05.426Z,100.00
2019-06-10T20:03:35.833Z,100.00
2019-06-10T20:06:04.412Z,100.00
2019-06-10T20:08:34.637Z,100.00
2019-06-10T20:11:03.553Z,100.00
2019-06-10T20:13:36.399Z,100.00
2019-06-10T20:16:04.871Z,100.00
2019-06-10T20:18:40.423Z,100.00
2019-06-10T20:21:08.958Z,100.00
2019-06-10T20:23:37.412Z,100.00
2019-06-10T20:26:05.664Z,100.00
2019-06-10T20:28:34.904Z,100.00
2019-06-10T20:31:03.213Z,100.00
2019-06-10T20:33:38.418Z,100.00
2019-06-10T20:36:10.932Z,100.00
2019-06-10T20:38:38.342Z,100.00
2019-06-10T20:41:06.719Z,100.00
2019-06-10T20:43:34.993Z,100.00
2019-06-10T20:46:05.978Z,100.00
2019-06-10T20:48:34.566Z,100.00
2019-06-10T20:51:03.394Z,100.00
2019-06-10T20:53:34.005Z,100.00
2019-06-10T20:56:03.894Z,100.00
2019-06-10T20:58:33.113Z,100.00
2019-06-10T21:01:03.994Z,100.00
2019-06-10T21:03:32.349Z,100.00
2019-06-10T21:06:03.097Z,100.00
2019-06-10T21:08:34.058Z,100.00
2019-06-10T21:11:14.171Z,100.00
2019-06-10T21:13:51.072Z,100.00
2019-06-10T21:16:18.646Z,100.00
2019-06-10T21:18:49.105Z,100.00
2019-06-10T21:21:16.978Z,100.00
2019-06-10T21:23:47.632Z,100.00
2019-06-10T21:26:17.149Z,100.00
2019-06-10T21:28:49.226Z,100.00
2019-06-10T21:31:18.335Z,100.00
2019-06-10T21:33:55.761Z,100.00
2019-06-10T21:36:23.583Z,100.00
2019-06-10T21:38:57.813Z,100.00
2019-06-10T21:41:26.072Z,100.00
2019-06-10T21:43:59.282Z,100.00
2019-06-10T21:46:24.406Z,100.00
2019-06-10T21:48:55.635Z,100.00
2019-06-10T21:51:23.802Z,100.00
2019-06-10T21:53:53.809Z,100.00
2019-06-10T21:56:25.256Z,100.00
2019-06-10T21:58:57.693Z,100.00
2019-06-10T22:01:28.048Z,100.00
2019-06-10T22:04:00.837Z,100.00
2019-06-10T22:06:26.385Z,100.00
2019-06-10T22:08:56.476Z,100.00
2019-06-10T22:11:24.883Z,100.00
2019-06-10T22:13:56.129Z,100.00
2019-06-10T22:16:23.392Z,100.00
2019-06-10T22:18:52.915Z,100.00
2019-06-10T22:21:22.648Z,100.00
2019-06-10T22:23:55.009Z,100.00
2019-06-10T22:26:22.627Z,100.00
2019-06-10T22:28:55.411Z,100.00
2019-06-10T22:31:26.110Z,100.00
2019-06-10T22:33:55.812Z,100.00
2019-06-10T22:36:23.160Z,100.00
2019-06-10T22:38:55.776Z,100.00
2019-06-10T22:41:23.786Z,100.00
2019-06-10T22:43:54.558Z,100.00
2019-06-10T22:46:23.163Z,100.00
2019-06-10T22:48:53.270Z,100.00
2019-06-10T22:51:22.654Z,100.00
2019-06-10T22:53:54.753Z,100.00
2019-06-10T22:56:22.450Z,100.00
2019-06-10T22:58:55.973Z,100.00
2019-06-10T23:01:34.473Z,100.00
2019-06-10T23:03:56.253Z,100.00
2019-06-10T23:06:24.595Z,100.00
2019-06-10T23:08:55.070Z,100.00
2019-06-10T23:11:24.087Z,100.00
2019-06-10T23:13:53.837Z,100.00
2019-06-10T23:16:23.614Z,100.00
2019-06-10T23:18:54.047Z,100.00
2019-06-10T23:21:21.978Z,100.00
2019-06-10T23:23:53.806Z,100.00
2019-06-10T23:26:22.395Z,100.00
2019-06-10T23:28:52.767Z,100.00
2019-06-10T23:31:20.320Z,100.00
2019-06-10T23:33:48.586Z,100.00
2019-06-10T23:36:19.555Z,100.00
2019-06-10T23:38:47.807Z,100.00
2019-06-10T23:41:17.104Z,100.00
2019-06-10T23:43:45.373Z,100.00
2019-06-10T23:46:13.649Z,100.00
2019-06-10T23:48:42.877Z,100.00
2019-06-10T23:51:12.232Z,100.00
2019-06-10T23:53:40.475Z,100.00
2019-06-10T23:56:08.743Z,100.00
2019-06-10T23:58:37.018Z,100.00
